sensor_id;sensor_type;location;lat;lon;timestamp;P1;durP1;ratioP1;P2;durP2;ratioP2
18042;SDS011;9146;48.074;11.968;2023-03-14T00:01:12;2.97;;;1.17;;
18042;SDS011;9146;48.074;11.968;2023-03-14T00:03:41;1.20;;;1.20;;
18042;SDS011;9146;48.074;11.968;2023-03-14T00:06:08;0.83;;;0.83;;
18042;SDS011;9146;48.074;11.968;2023-03-14T00:08:38;1.03;;;1.03;;
18042;SDS011;9146;48.074;11.968;2023-03-14T00:11:06;1.10;;;1.10;;
18042;SDS011;9146;48.074;11.968;2023-03-14T00:13:33;0.90;;;0.90;;
18042;SDS011;9146;48.074;11.968;2023-03-14T00:16:04;1.20;;;1.20;;
18042;SDS011;9146;48.074;11.968;2023-03-14T00:18:32;0.97;;;0.93;;
18042;SDS011;9146;48.074;11.968;2023-03-14T00:21:00;1.23;;;1.13;;
18042;SDS011;9146;48.074;11.968;2023-03-14T00:23:28;1.00;;;1.00;;
18042;SDS011;9146;48.074;11.968;2023-03-14T00:25:59;1.30;;;1.20;;
18042;SDS011;9146;48.074;11.968;2023-03-14T00:28:26;1.40;;;1.30;;
18042;SDS011;9146;48.074;11.968;2023-03-14T00:30:53;1.43;;;1.20;;
18042;SDS011;9146;48.074;11.968;2023-03-14T00:33:20;1.40;;;1.10;;
18042;SDS011;9146;48.074;11.968;2023-03-14T00:35:54;0.90;;;0.90;;
18042;SDS011;9146;48.074;11.968;2023-03-14T00:38:21;1.50;;;1.40;;
18042;SDS011;9146;48.074;11.968;2023-03-14T00:40:49;4.87;;;1.30;;
18042;SDS011;9146;48.074;11.968;2023-03-14T00:43:18;1.80;;;1.70;;
18042;SDS011;9146;48.074;11.968;2023-03-14T00:45:46;1.43;;;1.30;;
18042;SDS011;9146;48.074;11.968;2023-03-14T00:48:13;1.63;;;1.20;;
18042;SDS011;9146;48.074;11.968;2023-03-14T00:50:40;1.40;;;1.40;;
18042;SDS011;9146;48.074;11.968;2023-03-14T00:53:07;2.50;;;1.50;;
18042;SDS011;9146;48.074;11.968;2023-03-14T00:55:36;1.63;;;1.53;;
18042;SDS011;9146;48.074;11.968;2023-03-14T00:58:03;1.20;;;1.20;;
18042;SDS011;9146;48.074;11.968;2023-03-14T01:00:32;1.60;;;1.50;;
18042;SDS011;9146;48.074;11.968;2023-03-14T01:02:59;1.53;;;1.43;;
18042;SDS011;9146;48.074;11.968;2023-03-14T01:05:26;1.30;;;1.20;;
18042;SDS011;9146;48.074;11.968;2023-03-14T01:07:53;4.30;;;1.40;;
18042;SDS011;9146;48.074;11.968;2023-03-14T01:10:21;1.33;;;1.23;;
18042;SDS011;9146;48.074;11.968;2023-03-14T01:12:48;1.33;;;1.23;;
18042;SDS011;9146;48.074;11.968;2023-03-14T01:15:16;1.10;;;1.10;;
18042;SDS011;9146;48.074;11.968;2023-03-14T01:17:44;1.10;;;1.10;;
18042;SDS011;9146;48.074;11.968;2023-03-14T01:20:12;2.07;;;1.03;;
18042;SDS011;9146;48.074;11.968;2023-03-14T01:22:41;1.90;;;1.77;;
18042;SDS011;9146;48.074;11.968;2023-03-14T01:25:09;1.53;;;1.07;;
18042;SDS011;9146;48.074;11.968;2023-03-14T01:27:40;1.57;;;1.47;;
18042;SDS011;9146;48.074;11.968;2023-03-14T01:30:08;2.27;;;1.30;;
18042;SDS011;9146;48.074;11.968;2023-03-14T01:32:36;1.30;;;1.20;;
18042;SDS011;9146;48.074;11.968;2023-03-14T01:35:05;1.27;;;1.23;;
18042;SDS011;9146;48.074;11.968;2023-03-14T01:37:33;1.10;;;1.10;;
18042;SDS011;9146;48.074;11.968;2023-03-14T01:40:00;1.13;;;1.13;;
18042;SDS011;9146;48.074;11.968;2023-03-14T01:42:28;0.87;;;0.87;;
18042;SDS011;9146;48.074;11.968;2023-03-14T01:44:56;0.80;;;0.80;;
18042;SDS011;9146;48.074;11.968;2023-03-14T01:47:24;1.47;;;0.87;;
18042;SDS011;9146;48.074;11.968;2023-03-14T01:49:51;0.90;;;0.90;;
18042;SDS011;9146;48.074;11.968;2023-03-14T01:52:26;2.20;;;0.90;;
18042;SDS011;9146;48.074;11.968;2023-03-14T01:54:58;1.73;;;0.90;;
18042;SDS011;9146;48.074;11.968;2023-03-14T01:57:28;1.10;;;0.90;;
18042;SDS011;9146;48.074;11.968;2023-03-14T01:59:59;1.40;;;0.80;;
18042;SDS011;9146;48.074;11.968;2023-03-14T02:02:35;2.60;;;0.80;;
18042;SDS011;9146;48.074;11.968;2023-03-14T02:05:02;1.00;;;1.00;;
18042;SDS011;9146;48.074;11.968;2023-03-14T02:07:32;0.97;;;0.97;;
18042;SDS011;9146;48.074;11.968;2023-03-14T02:10:04;1.00;;;1.00;;
18042;SDS011;9146;48.074;11.968;2023-03-14T02:12:33;1.00;;;1.00;;
18042;SDS011;9146;48.074;11.968;2023-03-14T02:15:01;0.90;;;0.90;;
18042;SDS011;9146;48.074;11.968;2023-03-14T02:17:28;1.50;;;1.20;;
18042;SDS011;9146;48.074;11.968;2023-03-14T02:20:00;1.00;;;1.00;;
18042;SDS011;9146;48.074;11.968;2023-03-14T02:22:35;3.07;;;0.90;;
18042;SDS011;9146;48.074;11.968;2023-03-14T02:25:06;0.80;;;0.80;;
18042;SDS011;9146;48.074;11.968;2023-03-14T02:27:39;1.27;;;1.17;;
18042;SDS011;9146;48.074;11.968;2023-03-14T02:30:08;1.10;;;1.10;;
18042;SDS011;9146;48.074;11.968;2023-03-14T02:32:37;2.40;;;0.80;;
18042;SDS011;9146;48.074;11.968;2023-03-14T02:35:08;0.90;;;0.90;;
18042;SDS011;9146;48.074;11.968;2023-03-14T02:37:38;1.67;;;1.03;;
18042;SDS011;9146;48.074;11.968;2023-03-14T02:40:09;1.20;;;1.20;;
18042;SDS011;9146;48.074;11.968;2023-03-14T02:42:36;0.90;;;0.90;;
18042;SDS011;9146;48.074;11.968;2023-03-14T02:48:08;1.00;;;1.00;;
18042;SDS011;9146;48.074;11.968;2023-03-14T02:50:42;0.90;;;0.90;;
18042;SDS011;9146;48.074;11.968;2023-03-14T02:53:12;0.80;;;0.80;;
18042;SDS011;9146;48.074;11.968;2023-03-14T02:55:44;3.93;;;1.10;;
18042;SDS011;9146;48.074;11.968;2023-03-14T02:58:12;1.37;;;1.00;;
18042;SDS011;9146;48.074;11.968;2023-03-14T03:00:39;0.97;;;0.97;;
18042;SDS011;9146;48.074;11.968;2023-03-14T03:03:08;0.80;;;0.80;;
18042;SDS011;9146;48.074;11.968;2023-03-14T03:05:35;1.23;;;1.13;;
18042;SDS011;9146;48.074;11.968;2023-03-14T03:08:02;0.70;;;0.70;;
18042;SDS011;9146;48.074;11.968;2023-03-14T03:10:29;0.80;;;0.80;;
18042;SDS011;9146;48.074;11.968;2023-03-14T03:12:57;0.77;;;0.77;;
18042;SDS011;9146;48.074;11.968;2023-03-14T03:15:23;0.80;;;0.80;;
18042;SDS011;9146;48.074;11.968;2023-03-14T03:17:50;1.60;;;0.80;;
18042;SDS011;9146;48.074;11.968;2023-03-14T03:20:19;1.70;;;0.90;;
18042;SDS011;9146;48.074;11.968;2023-03-14T03:22:46;1.00;;;1.00;;
18042;SDS011;9146;48.074;11.968;2023-03-14T03:25:15;0.80;;;0.80;;
18042;SDS011;9146;48.074;11.968;2023-03-14T03:27:42;0.80;;;0.80;;
18042;SDS011;9146;48.074;11.968;2023-03-14T03:30:09;1.73;;;0.70;;
18042;SDS011;9146;48.074;11.968;2023-03-14T03:32:36;0.80;;;0.80;;
18042;SDS011;9146;48.074;11.968;2023-03-14T03:35:04;1.03;;;1.00;;
18042;SDS011;9146;48.074;11.968;2023-03-14T03:37:33;0.67;;;0.67;;
18042;SDS011;9146;48.074;11.968;2023-03-14T03:40:01;0.80;;;0.80;;
18042;SDS011;9146;48.074;11.968;2023-03-14T03:42:31;1.00;;;0.70;;
18042;SDS011;9146;48.074;11.968;2023-03-14T03:44:58;0.70;;;0.70;;
18042;SDS011;9146;48.074;11.968;2023-03-14T03:47:25;0.90;;;0.90;;
18042;SDS011;9146;48.074;11.968;2023-03-14T03:49:53;0.73;;;0.73;;
18042;SDS011;9146;48.074;11.968;2023-03-14T03:52:20;0.80;;;0.80;;
18042;SDS011;9146;48.074;11.968;2023-03-14T03:54:48;0.73;;;0.73;;
18042;SDS011;9146;48.074;11.968;2023-03-14T03:57:15;0.70;;;0.70;;
18042;SDS011;9146;48.074;11.968;2023-03-14T03:59:42;2.93;;;0.80;;
18042;SDS011;9146;48.074;11.968;2023-03-14T04:02:08;0.80;;;0.80;;
18042;SDS011;9146;48.074;11.968;2023-03-14T04:04:35;0.80;;;0.80;;
18042;SDS011;9146;48.074;11.968;2023-03-14T04:07:03;1.67;;;1.50;;
18042;SDS011;9146;48.074;11.968;2023-03-14T04:09:30;0.80;;;0.80;;
18042;SDS011;9146;48.074;11.968;2023-03-14T04:11:59;0.80;;;0.77;;
18042;SDS011;9146;48.074;11.968;2023-03-14T04:14:27;0.70;;;0.70;;
18042;SDS011;9146;48.074;11.968;2023-03-14T04:16:54;1.70;;;0.80;;
18042;SDS011;9146;48.074;11.968;2023-03-14T04:19:20;0.70;;;0.70;;
18042;SDS011;9146;48.074;11.968;2023-03-14T04:21:47;1.00;;;0.87;;
18042;SDS011;9146;48.074;11.968;2023-03-14T04:24:14;0.70;;;0.70;;
18042;SDS011;9146;48.074;11.968;2023-03-14T04:26:41;0.77;;;0.77;;
18042;SDS011;9146;48.074;11.968;2023-03-14T04:29:10;0.70;;;0.70;;
18042;SDS011;9146;48.074;11.968;2023-03-14T04:31:37;0.70;;;0.70;;
18042;SDS011;9146;48.074;11.968;2023-03-14T04:34:03;0.70;;;0.70;;
18042;SDS011;9146;48.074;11.968;2023-03-14T04:36:30;0.80;;;0.80;;
18042;SDS011;9146;48.074;11.968;2023-03-14T04:38:57;0.60;;;0.60;;
18042;SDS011;9146;48.074;11.968;2023-03-14T04:41:24;0.80;;;0.80;;
18042;SDS011;9146;48.074;11.968;2023-03-14T04:43:51;0.70;;;0.70;;
18042;SDS011;9146;48.074;11.968;2023-03-14T04:46:19;0.60;;;0.60;;
18042;SDS011;9146;48.074;11.968;2023-03-14T04:48:46;0.60;;;0.60;;
18042;SDS011;9146;48.074;11.968;2023-03-14T04:51:13;0.70;;;0.70;;
18042;SDS011;9146;48.074;11.968;2023-03-14T04:53:40;0.60;;;0.60;;
18042;SDS011;9146;48.074;11.968;2023-03-14T04:56:07;0.87;;;0.87;;
18042;SDS011;9146;48.074;11.968;2023-03-14T04:58:35;1.00;;;1.00;;
18042;SDS011;9146;48.074;11.968;2023-03-14T05:01:02;0.90;;;0.90;;
18042;SDS011;9146;48.074;11.968;2023-03-14T05:03:31;1.00;;;1.00;;
18042;SDS011;9146;48.074;11.968;2023-03-14T05:05:58;0.80;;;0.80;;
18042;SDS011;9146;48.074;11.968;2023-03-14T05:08:25;0.70;;;0.70;;
18042;SDS011;9146;48.074;11.968;2023-03-14T05:10:52;1.27;;;1.27;;
18042;SDS011;9146;48.074;11.968;2023-03-14T05:13:19;0.90;;;0.90;;
18042;SDS011;9146;48.074;11.968;2023-03-14T05:15:46;0.70;;;0.70;;
18042;SDS011;9146;48.074;11.968;2023-03-14T05:18:15;0.80;;;0.80;;
18042;SDS011;9146;48.074;11.968;2023-03-14T05:20:44;1.90;;;1.80;;
18042;SDS011;9146;48.074;11.968;2023-03-14T05:23:10;0.73;;;0.73;;
18042;SDS011;9146;48.074;11.968;2023-03-14T05:25:37;0.80;;;0.80;;
18042;SDS011;9146;48.074;11.968;2023-03-14T05:28:04;0.70;;;0.70;;
18042;SDS011;9146;48.074;11.968;2023-03-14T05:30:31;0.80;;;0.70;;
18042;SDS011;9146;48.074;11.968;2023-03-14T05:32:58;0.70;;;0.70;;
18042;SDS011;9146;48.074;11.968;2023-03-14T05:35:25;0.73;;;0.73;;
18042;SDS011;9146;48.074;11.968;2023-03-14T05:37:54;0.83;;;0.83;;
18042;SDS011;9146;48.074;11.968;2023-03-14T05:40:21;0.93;;;0.93;;
18042;SDS011;9146;48.074;11.968;2023-03-14T05:42:48;1.03;;;0.93;;
18042;SDS011;9146;48.074;11.968;2023-03-14T05:45:15;1.00;;;1.00;;
18042;SDS011;9146;48.074;11.968;2023-03-14T05:47:42;6.13;;;1.00;;
18042;SDS011;9146;48.074;11.968;2023-03-14T05:50:09;1.87;;;1.33;;
18042;SDS011;9146;48.074;11.968;2023-03-14T05:52:37;1.70;;;1.27;;
18042;SDS011;9146;48.074;11.968;2023-03-14T05:55:05;0.80;;;0.80;;
18042;SDS011;9146;48.074;11.968;2023-03-14T05:57:33;0.70;;;0.70;;
18042;SDS011;9146;48.074;11.968;2023-03-14T06:00:00;0.80;;;0.80;;
18042;SDS011;9146;48.074;11.968;2023-03-14T06:02:27;1.00;;;0.90;;
18042;SDS011;9146;48.074;11.968;2023-03-14T06:04:54;1.10;;;1.07;;
18042;SDS011;9146;48.074;11.968;2023-03-14T06:07:21;1.10;;;1.00;;
18042;SDS011;9146;48.074;11.968;2023-03-14T06:09:48;1.53;;;1.43;;
18042;SDS011;9146;48.074;11.968;2023-03-14T06:12:16;1.33;;;1.33;;
18042;SDS011;9146;48.074;11.968;2023-03-14T06:14:43;1.27;;;1.17;;
18042;SDS011;9146;48.074;11.968;2023-03-14T06:17:10;1.10;;;1.00;;
18042;SDS011;9146;48.074;11.968;2023-03-14T06:19:37;1.23;;;1.00;;
18042;SDS011;9146;48.074;11.968;2023-03-14T06:22:04;0.83;;;0.83;;
18042;SDS011;9146;48.074;11.968;2023-03-14T06:24:31;0.60;;;0.60;;
18042;SDS011;9146;48.074;11.968;2023-03-14T06:26:58;0.70;;;0.70;;
18042;SDS011;9146;48.074;11.968;2023-03-14T06:29:28;0.80;;;0.77;;
18042;SDS011;9146;48.074;11.968;2023-03-14T06:31:56;0.90;;;0.90;;
18042;SDS011;9146;48.074;11.968;2023-03-14T06:34:23;0.70;;;0.70;;
18042;SDS011;9146;48.074;11.968;2023-03-14T06:36:50;0.70;;;0.70;;
18042;SDS011;9146;48.074;11.968;2023-03-14T06:39:17;0.80;;;0.80;;
18042;SDS011;9146;48.074;11.968;2023-03-14T06:41:44;1.47;;;0.70;;
18042;SDS011;9146;48.074;11.968;2023-03-14T06:44:11;0.70;;;0.70;;
18042;SDS011;9146;48.074;11.968;2023-03-14T06:46:39;0.80;;;0.80;;
18042;SDS011;9146;48.074;11.968;2023-03-14T06:49:07;1.83;;;0.80;;
18042;SDS011;9146;48.074;11.968;2023-03-14T06:51:34;0.83;;;0.83;;
18042;SDS011;9146;48.074;11.968;2023-03-14T06:54:01;0.80;;;0.80;;
18042;SDS011;9146;48.074;11.968;2023-03-14T06:56:28;0.80;;;0.80;;
18042;SDS011;9146;48.074;11.968;2023-03-14T06:58:55;0.90;;;0.90;;
18042;SDS011;9146;48.074;11.968;2023-03-14T07:01:22;0.80;;;0.80;;
18042;SDS011;9146;48.074;11.968;2023-03-14T07:03:52;0.73;;;0.73;;
18042;SDS011;9146;48.074;11.968;2023-03-14T07:06:19;1.27;;;1.17;;
18042;SDS011;9146;48.074;11.968;2023-03-14T07:08:47;1.77;;;1.67;;
18042;SDS011;9146;48.074;11.968;2023-03-14T07:11:14;3.13;;;2.80;;
18042;SDS011;9146;48.074;11.968;2023-03-14T07:13:41;2.87;;;2.20;;
18042;SDS011;9146;48.074;11.968;2023-03-14T07:16:08;3.90;;;2.90;;
18042;SDS011;9146;48.074;11.968;2023-03-14T07:18:35;2.63;;;2.40;;
18042;SDS011;9146;48.074;11.968;2023-03-14T07:21:05;3.63;;;2.43;;
18042;SDS011;9146;48.074;11.968;2023-03-14T07:23:32;1.60;;;1.50;;
18042;SDS011;9146;48.074;11.968;2023-03-14T07:25:59;1.70;;;1.60;;
18042;SDS011;9146;48.074;11.968;2023-03-14T07:28:26;1.50;;;1.40;;
18042;SDS011;9146;48.074;11.968;2023-03-14T07:30:54;1.07;;;1.07;;
18042;SDS011;9146;48.074;11.968;2023-03-14T07:33:21;0.90;;;0.90;;
18042;SDS011;9146;48.074;11.968;2023-03-14T07:35:49;1.20;;;1.20;;
18042;SDS011;9146;48.074;11.968;2023-03-14T07:38:17;1.00;;;1.00;;
18042;SDS011;9146;48.074;11.968;2023-03-14T07:40:44;1.37;;;1.27;;
18042;SDS011;9146;48.074;11.968;2023-03-14T07:43:11;1.73;;;1.63;;
18042;SDS011;9146;48.074;11.968;2023-03-14T07:45:38;1.00;;;1.00;;
18042;SDS011;9146;48.074;11.968;2023-03-14T07:48:05;1.40;;;1.30;;
18042;SDS011;9146;48.074;11.968;2023-03-14T07:50:33;1.50;;;1.40;;
18042;SDS011;9146;48.074;11.968;2023-03-14T07:52:59;1.77;;;1.67;;
18042;SDS011;9146;48.074;11.968;2023-03-14T07:55:28;1.87;;;1.77;;
18042;SDS011;9146;48.074;11.968;2023-03-14T07:57:55;1.63;;;1.53;;
18042;SDS011;9146;48.074;11.968;2023-03-14T08:00:22;1.30;;;1.20;;
18042;SDS011;9146;48.074;11.968;2023-03-14T08:02:49;1.47;;;1.40;;
18042;SDS011;9146;48.074;11.968;2023-03-14T08:05:16;2.23;;;1.60;;
18042;SDS011;9146;48.074;11.968;2023-03-14T08:07:43;1.33;;;1.23;;
18042;SDS011;9146;48.074;11.968;2023-03-14T08:10:10;1.10;;;1.10;;
18042;SDS011;9146;48.074;11.968;2023-03-14T08:12:42;0.97;;;0.97;;
18042;SDS011;9146;48.074;11.968;2023-03-14T08:15:09;1.50;;;1.40;;
18042;SDS011;9146;48.074;11.968;2023-03-14T08:17:36;1.33;;;1.23;;
18042;SDS011;9146;48.074;11.968;2023-03-14T08:20:03;2.70;;;2.50;;
18042;SDS011;9146;48.074;11.968;2023-03-14T08:22:33;3.90;;;3.50;;
18042;SDS011;9146;48.074;11.968;2023-03-14T08:25:01;4.17;;;3.57;;
18042;SDS011;9146;48.074;11.968;2023-03-14T08:27:28;4.10;;;3.70;;
18042;SDS011;9146;48.074;11.968;2023-03-14T08:29:56;3.37;;;3.07;;
18042;SDS011;9146;48.074;11.968;2023-03-14T08:32:23;2.80;;;2.47;;
18042;SDS011;9146;48.074;11.968;2023-03-14T08:34:51;2.67;;;2.47;;
18042;SDS011;9146;48.074;11.968;2023-03-14T08:37:18;1.77;;;1.67;;
18042;SDS011;9146;48.074;11.968;2023-03-14T08:39:45;1.70;;;1.60;;
18042;SDS011;9146;48.074;11.968;2023-03-14T08:42:12;1.90;;;1.70;;
18042;SDS011;9146;48.074;11.968;2023-03-14T08:44:39;6.57;;;1.50;;
18042;SDS011;9146;48.074;11.968;2023-03-14T08:47:08;1.70;;;1.60;;
18042;SDS011;9146;48.074;11.968;2023-03-14T08:49:34;1.37;;;1.37;;
18042;SDS011;9146;48.074;11.968;2023-03-14T08:52:01;1.20;;;1.20;;
18042;SDS011;9146;48.074;11.968;2023-03-14T08:54:29;1.80;;;1.40;;
18042;SDS011;9146;48.074;11.968;2023-03-14T08:56:56;1.60;;;1.50;;
18042;SDS011;9146;48.074;11.968;2023-03-14T08:59:24;2.77;;;1.70;;
18042;SDS011;9146;48.074;11.968;2023-03-14T09:01:51;1.93;;;1.77;;
18042;SDS011;9146;48.074;11.968;2023-03-14T09:04:20;1.57;;;1.47;;
18042;SDS011;9146;48.074;11.968;2023-03-14T09:06:47;1.90;;;1.80;;
18042;SDS011;9146;48.074;11.968;2023-03-14T09:09:14;3.67;;;3.40;;
18042;SDS011;9146;48.074;11.968;2023-03-14T09:11:41;2.50;;;2.30;;
18042;SDS011;9146;48.074;11.968;2023-03-14T09:14:08;2.33;;;2.13;;
18042;SDS011;9146;48.074;11.968;2023-03-14T09:16:34;3.20;;;2.00;;
18042;SDS011;9146;48.074;11.968;2023-03-14T09:19:01;1.97;;;1.87;;
18042;SDS011;9146;48.074;11.968;2023-03-14T09:21:30;2.00;;;1.90;;
18042;SDS011;9146;48.074;11.968;2023-03-14T09:23:57;2.60;;;2.40;;
18042;SDS011;9146;48.074;11.968;2023-03-14T09:26:24;3.20;;;2.90;;
18042;SDS011;9146;48.074;11.968;2023-03-14T09:28:51;2.80;;;2.60;;
18042;SDS011;9146;48.074;11.968;2023-03-14T09:31:18;6.30;;;4.30;;
18042;SDS011;9146;48.074;11.968;2023-03-14T09:33:45;7.07;;;5.70;;
18042;SDS011;9146;48.074;11.968;2023-03-14T09:36:12;5.97;;;4.57;;
18042;SDS011;9146;48.074;11.968;2023-03-14T09:38:40;4.13;;;3.77;;
18042;SDS011;9146;48.074;11.968;2023-03-14T09:41:13;5.23;;;2.93;;
18042;SDS011;9146;48.074;11.968;2023-03-14T09:43:42;2.00;;;1.90;;
18042;SDS011;9146;48.074;11.968;2023-03-14T09:46:11;1.97;;;1.83;;
18042;SDS011;9146;48.074;11.968;2023-03-14T09:48:40;2.60;;;2.40;;
18042;SDS011;9146;48.074;11.968;2023-03-14T09:51:11;3.00;;;2.70;;
18042;SDS011;9146;48.074;11.968;2023-03-14T09:53:43;4.67;;;3.90;;
18042;SDS011;9146;48.074;11.968;2023-03-14T09:56:12;2.83;;;2.60;;
18042;SDS011;9146;48.074;11.968;2023-03-14T09:58:44;2.33;;;2.13;;
18042;SDS011;9146;48.074;11.968;2023-03-14T10:01:15;2.73;;;2.00;;
18042;SDS011;9146;48.074;11.968;2023-03-14T10:03:46;1.93;;;1.83;;
18042;SDS011;9146;48.074;11.968;2023-03-14T10:06:14;5.17;;;1.83;;
18042;SDS011;9146;48.074;11.968;2023-03-14T10:08:43;2.07;;;1.97;;
18042;SDS011;9146;48.074;11.968;2023-03-14T10:11:13;5.77;;;3.93;;
18042;SDS011;9146;48.074;11.968;2023-03-14T10:13:49;2.50;;;2.30;;
18042;SDS011;9146;48.074;11.968;2023-03-14T10:16:29;2.70;;;2.50;;
18042;SDS011;9146;48.074;11.968;2023-03-14T10:19:04;2.50;;;2.30;;
18042;SDS011;9146;48.074;11.968;2023-03-14T10:21:35;2.20;;;2.10;;
18042;SDS011;9146;48.074;11.968;2023-03-14T10:24:09;1.80;;;1.70;;
18042;SDS011;9146;48.074;11.968;2023-03-14T10:26:43;2.30;;;1.67;;
18042;SDS011;9146;48.074;11.968;2023-03-14T10:29:13;1.87;;;1.77;;
18042;SDS011;9146;48.074;11.968;2023-03-14T10:31:48;2.37;;;2.17;;
18042;SDS011;9146;48.074;11.968;2023-03-14T10:34:21;2.50;;;2.30;;
18042;SDS011;9146;48.074;11.968;2023-03-14T10:36:53;2.40;;;2.20;;
18042;SDS011;9146;48.074;11.968;2023-03-14T10:39:31;5.70;;;2.10;;
18042;SDS011;9146;48.074;11.968;2023-03-14T10:42:10;2.53;;;2.33;;
18042;SDS011;9146;48.074;11.968;2023-03-14T10:44:41;1.83;;;1.73;;
18042;SDS011;9146;48.074;11.968;2023-03-14T10:47:12;2.80;;;2.60;;
18042;SDS011;9146;48.074;11.968;2023-03-14T10:49:44;3.07;;;2.83;;
18042;SDS011;9146;48.074;11.968;2023-03-14T10:52:15;4.27;;;3.37;;
18042;SDS011;9146;48.074;11.968;2023-03-14T10:54:50;3.33;;;3.03;;
18042;SDS011;9146;48.074;11.968;2023-03-14T10:57:20;3.67;;;2.70;;
18042;SDS011;9146;48.074;11.968;2023-03-14T10:59:47;2.10;;;2.00;;
18042;SDS011;9146;48.074;11.968;2023-03-14T11:02:22;1.77;;;1.60;;
18042;SDS011;9146;48.074;11.968;2023-03-14T11:05:09;2.10;;;2.00;;
18042;SDS011;9146;48.074;11.968;2023-03-14T11:07:42;1.80;;;1.70;;
18042;SDS011;9146;48.074;11.968;2023-03-14T11:10:17;2.20;;;2.00;;
18042;SDS011;9146;48.074;11.968;2023-03-14T11:12:52;1.93;;;1.70;;
18042;SDS011;9146;48.074;11.968;2023-03-14T11:15:29;2.23;;;2.03;;
18042;SDS011;9146;48.074;11.968;2023-03-14T11:18:06;2.20;;;1.60;;
18042;SDS011;9146;48.074;11.968;2023-03-14T11:20:51;1.47;;;1.37;;
18042;SDS011;9146;48.074;11.968;2023-03-14T11:23:20;1.83;;;1.57;;
18042;SDS011;9146;48.074;11.968;2023-03-14T11:25:54;2.10;;;1.33;;
18042;SDS011;9146;48.074;11.968;2023-03-14T11:28:26;1.97;;;1.87;;
18042;SDS011;9146;48.074;11.968;2023-03-14T11:31:03;1.20;;;1.10;;
18042;SDS011;9146;48.074;11.968;2023-03-14T11:33:44;1.40;;;1.30;;
18042;SDS011;9146;48.074;11.968;2023-03-14T11:36:18;2.80;;;1.30;;
18042;SDS011;9146;48.074;11.968;2023-03-14T11:38:47;1.30;;;1.20;;
18042;SDS011;9146;48.074;11.968;2023-03-14T11:41:17;1.63;;;1.50;;
18042;SDS011;9146;48.074;11.968;2023-03-14T11:43:47;1.40;;;1.30;;
18042;SDS011;9146;48.074;11.968;2023-03-14T11:46:16;1.43;;;1.10;;
18042;SDS011;9146;48.074;11.968;2023-03-14T11:48:48;1.03;;;0.90;;
18042;SDS011;9146;48.074;11.968;2023-03-14T11:51:23;1.07;;;1.07;;
18042;SDS011;9146;48.074;11.968;2023-03-14T11:53:57;1.70;;;1.30;;
18042;SDS011;9146;48.074;11.968;2023-03-14T11:56:31;1.30;;;1.20;;
18042;SDS011;9146;48.074;11.968;2023-03-14T11:59:01;1.43;;;1.10;;
18042;SDS011;9146;48.074;11.968;2023-03-14T12:01:37;1.47;;;1.37;;
18042;SDS011;9146;48.074;11.968;2023-03-14T12:04:18;1.30;;;0.90;;
18042;SDS011;9146;48.074;11.968;2023-03-14T12:06:59;1.00;;;0.90;;
18042;SDS011;9146;48.074;11.968;2023-03-14T12:09:29;2.20;;;0.80;;
18042;SDS011;9146;48.074;11.968;2023-03-14T12:11:58;0.70;;;0.70;;
18042;SDS011;9146;48.074;11.968;2023-03-14T12:14:27;0.80;;;0.80;;
18042;SDS011;9146;48.074;11.968;2023-03-14T12:16:56;1.00;;;1.00;;
18042;SDS011;9146;48.074;11.968;2023-03-14T12:19:31;1.10;;;1.00;;
18042;SDS011;9146;48.074;11.968;2023-03-14T12:22:01;2.10;;;1.10;;
18042;SDS011;9146;48.074;11.968;2023-03-14T12:24:35;2.50;;;1.10;;
18042;SDS011;9146;48.074;11.968;2023-03-14T12:27:06;2.83;;;0.80;;
18042;SDS011;9146;48.074;11.968;2023-03-14T12:32:26;0.83;;;0.83;;
18042;SDS011;9146;48.074;11.968;2023-03-14T12:34:53;0.80;;;0.80;;
18042;SDS011;9146;48.074;11.968;2023-03-14T12:37:23;0.70;;;0.70;;
18042;SDS011;9146;48.074;11.968;2023-03-14T12:42:54;0.80;;;0.80;;
18042;SDS011;9146;48.074;11.968;2023-03-14T12:45:26;1.00;;;0.90;;
18042;SDS011;9146;48.074;11.968;2023-03-14T12:48:08;0.80;;;0.80;;
18042;SDS011;9146;48.074;11.968;2023-03-14T12:50:41;0.70;;;0.70;;
18042;SDS011;9146;48.074;11.968;2023-03-14T12:59:13;0.73;;;0.73;;
18042;SDS011;9146;48.074;11.968;2023-03-14T13:01:54;1.00;;;0.80;;
18042;SDS011;9146;48.074;11.968;2023-03-14T13:04:26;0.80;;;0.70;;
18042;SDS011;9146;48.074;11.968;2023-03-14T13:06:56;1.17;;;0.90;;
18042;SDS011;9146;48.074;11.968;2023-03-14T13:09:35;0.80;;;0.80;;
18042;SDS011;9146;48.074;11.968;2023-03-14T13:12:23;1.57;;;0.90;;
18042;SDS011;9146;48.074;11.968;2023-03-14T13:14:59;1.97;;;0.70;;
18042;SDS011;9146;48.074;11.968;2023-03-14T13:17:32;0.70;;;0.70;;
18042;SDS011;9146;48.074;11.968;2023-03-14T13:20:00;1.13;;;0.70;;
18042;SDS011;9146;48.074;11.968;2023-03-14T13:22:32;0.80;;;0.80;;
18042;SDS011;9146;48.074;11.968;2023-03-14T13:25:02;0.70;;;0.70;;
18042;SDS011;9146;48.074;11.968;2023-03-14T13:27:32;1.43;;;0.67;;
18042;SDS011;9146;48.074;11.968;2023-03-14T13:30:11;0.67;;;0.67;;
18042;SDS011;9146;48.074;11.968;2023-03-14T13:32:48;1.63;;;0.70;;
18042;SDS011;9146;48.074;11.968;2023-03-14T13:35:17;1.87;;;0.70;;
18042;SDS011;9146;48.074;11.968;2023-03-14T13:37:45;1.27;;;0.67;;
18042;SDS011;9146;48.074;11.968;2023-03-14T13:40:19;2.13;;;0.80;;
18042;SDS011;9146;48.074;11.968;2023-03-14T13:42:50;0.60;;;0.60;;
18042;SDS011;9146;48.074;11.968;2023-03-14T13:45:29;0.70;;;0.70;;
18042;SDS011;9146;48.074;11.968;2023-03-14T13:47:56;0.73;;;0.73;;
18042;SDS011;9146;48.074;11.968;2023-03-14T13:50:23;0.60;;;0.60;;
18042;SDS011;9146;48.074;11.968;2023-03-14T13:52:54;1.13;;;0.70;;
18042;SDS011;9146;48.074;11.968;2023-03-14T13:55:23;0.90;;;0.70;;
18042;SDS011;9146;48.074;11.968;2023-03-14T13:57:52;0.70;;;0.70;;
18042;SDS011;9146;48.074;11.968;2023-03-14T14:00:21;2.30;;;0.70;;
18042;SDS011;9146;48.074;11.968;2023-03-14T14:02:53;0.70;;;0.70;;
18042;SDS011;9146;48.074;11.968;2023-03-14T14:05:21;0.70;;;0.70;;
18042;SDS011;9146;48.074;11.968;2023-03-14T14:07:49;1.53;;;0.70;;
18042;SDS011;9146;48.074;11.968;2023-03-14T14:10:17;0.60;;;0.60;;
18042;SDS011;9146;48.074;11.968;2023-03-14T14:12:46;0.67;;;0.67;;
18042;SDS011;9146;48.074;11.968;2023-03-14T14:15:17;0.70;;;0.70;;
18042;SDS011;9146;48.074;11.968;2023-03-14T14:17:47;0.80;;;0.70;;
18042;SDS011;9146;48.074;11.968;2023-03-14T14:20:23;0.70;;;0.70;;
18042;SDS011;9146;48.074;11.968;2023-03-14T14:22:57;0.93;;;0.63;;
18042;SDS011;9146;48.074;11.968;2023-03-14T14:25:25;2.20;;;0.70;;
18042;SDS011;9146;48.074;11.968;2023-03-14T14:27:52;0.70;;;0.70;;
18042;SDS011;9146;48.074;11.968;2023-03-14T14:30:29;0.70;;;0.67;;
18042;SDS011;9146;48.074;11.968;2023-03-14T14:33:10;0.73;;;0.73;;
18042;SDS011;9146;48.074;11.968;2023-03-14T14:35:48;0.70;;;0.70;;
18042;SDS011;9146;48.074;11.968;2023-03-14T14:38:18;5.33;;;0.70;;
18042;SDS011;9146;48.074;11.968;2023-03-14T14:40:48;0.80;;;0.80;;
18042;SDS011;9146;48.074;11.968;2023-03-14T14:43:18;0.73;;;0.73;;
18042;SDS011;9146;48.074;11.968;2023-03-14T14:45:49;0.70;;;0.70;;
18042;SDS011;9146;48.074;11.968;2023-03-14T14:48:18;0.87;;;0.80;;
18042;SDS011;9146;48.074;11.968;2023-03-14T14:50:56;1.77;;;1.00;;
18042;SDS011;9146;48.074;11.968;2023-03-14T14:53:28;0.70;;;0.70;;
18042;SDS011;9146;48.074;11.968;2023-03-14T14:55:58;0.80;;;0.80;;
18042;SDS011;9146;48.074;11.968;2023-03-14T14:58:29;0.70;;;0.70;;
18042;SDS011;9146;48.074;11.968;2023-03-14T15:01:03;0.90;;;0.90;;
18042;SDS011;9146;48.074;11.968;2023-03-14T15:03:32;0.80;;;0.80;;
18042;SDS011;9146;48.074;11.968;2023-03-14T15:06:02;0.80;;;0.80;;
18042;SDS011;9146;48.074;11.968;2023-03-14T15:08:30;2.50;;;0.77;;
18042;SDS011;9146;48.074;11.968;2023-03-14T15:10:57;0.70;;;0.70;;
18042;SDS011;9146;48.074;11.968;2023-03-14T15:13:24;0.77;;;0.77;;
18042;SDS011;9146;48.074;11.968;2023-03-14T15:15:51;0.63;;;0.63;;